Latest Weather Observations for Wulungurru (Kintore)

IDD60801

Issued at 11:35 pm CST Tuesday 30 September 2014 (issued every 30 minutes, with the page automatically refreshed every 10 minutes)

About weather observations | Map of weather stations | Latest weather observations for NT | Other Formats
Station Details ID: 015664 Name: WALUNGURRU AIRPORT Lat: -23.27 Lon: 129.38 Height: 454.3 m
Data from the previous 72 hours. | See also: Recent months at Wulungurru (Kintore)
Date/Time
CST
Temp
°C
App
Temp
°C
Dew
Point
Rel
Hum
%
Delta-T
°C
Wind Press
QNH
hPa
Press
MSL
hPa
Rain
since 9 am
mm
Dir
 
Spd
km/h
Gust
km/h
Spd
kts
Gust
kts
30/11:30pm 30.1 24.3 -0.3 14 14.8 SE 20 30 11 16 1015.7 - 0.0
30/11:00pm 28.8 23.1 -0.4 15 14.0 SSE 19 24 10 13 1015.8 - 0.0
30/10:30pm 27.1 21.9 0.0 17 13.0 S 17 20 9 11 1015.7 - 0.0
30/10:00pm 27.0 22.3 0.7 18 12.7 S 15 17 8 9 1015.7 - 0.0
30/09:30pm 27.6 22.8 0.4 17 13.1 S 15 17 8 9 1015.6 - 0.0
30/09:00pm 28.1 22.9 -0.1 16 13.5 S 17 19 9 10 1015.5 1013.9 0.0
30/08:30pm 28.8 24.0 0.5 16 13.8 SSE 15 17 8 9 1015.1 - 0.0
30/08:00pm 29.4 25.0 0.1 15 14.3 SSE 13 17 7 9 1015.0 - 0.0
30/07:30pm 30.5 26.0 0.0 14 14.9 S 13 15 7 8 1014.5 - 0.0
30/07:00pm 32.1 27.5 -0.9 12 16.1 S 13 15 7 8 1014.0 - 0.0
30/06:30pm 34.5 29.5 -1.5 10 17.7 S 15 20 8 11 1013.6 - 0.0
30/06:00pm 35.6 30.5 -2.1 9 18.4 S 15 19 8 10 1013.3 1011.7 0.0
30/05:30pm 36.5 31.9 -1.4 9 18.9 SSE 13 20 7 11 1013.0 - 0.0
30/05:00pm 36.7 32.1 -1.3 9 19.0 SE 13 20 7 11 1012.9 - 0.0
30/04:30pm 35.9 33.1 -0.5 10 18.3 S 4 17 2 9 1012.8 - 0.0
30/04:00pm 37.1 32.1 -1.0 9 19.1 S 15 20 8 11 1012.9 - 0.0
30/03:30pm 37.4 33.2 -0.8 9 19.3 ENE 11 19 6 10 1013.0 - 0.0
30/03:00pm 37.3 33.9 -0.9 9 19.3 E 7 15 4 8 1013.2 1011.6 0.0
30/02:30pm 37.8 32.9 -0.5 9 19.5 SSW 15 22 8 12 1013.5 - 0.0
30/02:00pm 36.7 32.8 -1.3 9 19.0 W 9 19 5 10 1013.8 - 0.0
30/01:30pm 37.0 31.3 -1.1 9 19.1 SE 19 24 10 13 1014.2 - 0.0
30/01:00pm 36.1 32.0 -0.3 10 18.4 E 11 24 6 13 1014.6 - 0.0
30/12:30pm 36.6 31.4 0.1 10 18.6 E 17 24 9 13 1015.0 - 0.0
30/12:00pm 35.7 29.8 -0.6 10 18.2 E 20 28 11 15 1015.5 1013.9 0.0
30/11:30am 35.0 28.5 0.2 11 17.6 E 24 30 13 16 1015.9 - 0.0
30/11:00am 34.0 27.9 0.6 12 16.9 ESE 22 30 12 16 1016.3 - 0.0
30/10:30am 32.9 27.3 0.9 13 16.2 SE 20 26 11 14 1016.6 - 0.0
30/10:00am 31.0 25.4 1.4 15 14.9 SSE 20 28 11 15 1016.9 - 0.0
30/09:30am 29.8 24.2 1.3 16 14.2 SE 20 28 11 15 1016.7 - 0.0
30/09:00am 28.4 22.9 1.8 18 13.2 SE 20 26 11 14 1016.7 1015.1 0.0
30/08:30am 26.9 21.7 2.7 21 12.1 SE 19 28 10 15 1016.2 - 0.0
30/08:00am 25.6 19.3 1.7 21 11.7 SSE 24 30 13 16 1015.8 - 0.0
30/07:30am 24.9 18.6 1.7 22 11.3 SSE 24 32 13 17 1015.3 - 0.0
30/07:00am 24.1 17.8 1.7 23 10.8 SSE 24 28 13 15 1015.0 - 0.0
30/06:30am 24.2 17.5 1.2 22 11.0 SSE 26 39 14 21 1014.5 - 0.0
30/06:00am 24.1 18.1 1.1 22 11.0 SSE 22 33 12 18 1014.2 1012.6 0.0
30/05:30am 23.9 17.2 1.5 23 10.8 SSE 26 33 14 18 1013.7 - 0.0
30/05:00am 23.7 18.0 0.7 22 10.9 SSE 20 26 11 14 1013.2 - 0.0
30/04:30am 24.3 18.8 0.6 21 11.2 S 19 24 10 13 1013.0 - 0.0
30/04:00am 25.2 19.7 0.7 20 11.7 SSE 19 22 10 12 1013.0 - 0.0
30/03:30am 26.1 20.6 0.7 19 12.2 S 19 20 10 11 1012.7 - 0.0
30/03:00am 25.7 20.7 1.1 20 11.9 S 17 19 9 10 1012.7 1011.1 0.0
30/02:30am 25.3 20.2 0.7 20 11.8 SSE 17 19 9 10 1012.9 - 0.0
30/02:00am 24.9 20.6 1.1 21 11.4 SSE 13 15 7 8 1013.2 - 0.0
30/01:30am 23.9 20.0 0.9 22 10.9 SE 11 13 6 7 1013.4 - 0.0
30/01:00am 25.2 20.9 0.7 20 11.7 SW 13 17 7 9 1013.8 - 0.0
30/12:30am 24.1 20.2 1.1 22 11.0 SW 11 15 6 8 1013.9 - 0.0
30/12:00am 22.2 20.3 0.7 24 10.0 CALM 0 7 0 4 1014.0 1012.5 0.0
 
Date/Time
CST
Temp
°C
App
Temp
°C
Dew
Point
Rel
Hum
%
Delta-T
°C
Wind Press
QNH
hPa
Press
MSL
hPa
Rain
since 9 am
mm
Dir
 
Spd
km/h
Gust
km/h
Spd
kts
Gust
kts
29/11:30pm 22.3 20.3 0.2 23 10.2 CALM 0 6 0 3 1014.3 - 0.0
29/11:00pm 22.8 19.5 0.0 22 10.6 S 7 17 4 9 1014.3 - 0.0
29/10:30pm 23.4 21.5 0.5 22 10.8 CALM 0 0 0 0 1014.3 - 0.0
29/10:00pm 24.1 21.3 -0.2 20 11.3 S 4 7 2 4 1014.3 - 0.0
29/09:30pm 25.1 21.4 -0.1 19 11.9 S 9 13 5 7 1014.3 - 0.0
29/09:00pm 25.6 22.9 0.3 19 12.0 ESE 4 7 2 4 1014.0 1012.5 0.0
29/08:30pm 26.8 23.8 0.5 18 12.7 N 6 9 3 5 1013.7 - 0.0
29/08:00pm 26.7 23.3 -0.3 17 12.8 NNE 7 9 4 5 1013.2 - 0.0
29/07:30pm 29.2 25.0 -1.0 14 14.4 N 11 13 6 7 1012.9 - 0.0
29/07:00pm 31.2 26.9 -1.5 12 15.7 NNW 11 13 6 7 1012.5 - 0.0
29/06:30pm 33.6 28.5 -2.2 10 17.3 NW 15 22 8 12 1012.1 - 0.0
29/06:00pm 34.8 28.7 -2.7 9 18.1 NNW 20 30 11 16 1011.7 1010.1 0.0
29/05:30pm 35.5 28.7 -2.2 9 18.4 NW 24 35 13 19 1011.5 - 0.0
29/05:00pm 36.1 29.7 -1.7 9 18.7 NW 22 33 12 18 1011.4 - 0.0
29/04:30pm 36.3 30.3 -1.6 9 18.8 NW 20 32 11 17 1011.3 - 0.0
29/04:00pm 36.5 30.9 -3.0 8 19.2 NW 17 39 9 21 1011.3 - 0.0
29/03:30pm 36.4 29.4 -3.1 8 19.1 NNW 24 43 13 23 1011.4 - 0.0
29/03:00pm 37.0 30.5 -2.7 8 19.4 NW 22 39 12 21 1011.6 1010.0 0.0
29/02:30pm 36.6 29.7 -3.0 8 19.2 NW 24 37 13 20 1012.0 - 0.0
29/02:00pm 36.6 29.3 -3.0 8 19.2 N 26 39 14 21 1012.3 - 0.0
29/01:30pm 36.9 30.4 -2.7 8 19.4 NW 22 35 12 19 1012.7 - 0.0
29/01:00pm 35.3 30.0 -3.9 8 18.6 N 15 35 8 19 1013.2 - 0.0
29/12:30pm 35.8 29.2 -3.5 8 18.8 NW 22 37 12 20 1013.7 - 0.0
29/12:00pm 35.6 28.2 -3.7 8 18.7 NNW 26 41 14 22 1014.0 1012.5 0.0
29/11:30am 35.0 27.9 -4.1 8 18.4 NNW 24 33 13 18 1014.6 - 0.0
29/11:00am 34.2 27.6 -3.2 9 17.8 N 22 32 12 17 1014.8 - 0.0
29/10:30am 32.2 27.1 -2.0 11 16.4 N 15 24 8 13 1015.1 - 0.0
29/10:00am 30.7 26.7 0.2 14 15.0 NNE 11 17 6 9 1015.1 - 0.0
29/09:30am 29.1 24.8 0.7 16 13.9 NE 13 17 7 9 1015.1 - 0.0
29/09:00am 27.1 22.6 0.0 17 13.0 NE 13 19 7 10 1015.0 1013.4 0.0
29/08:30am 27.0 22.3 0.7 18 12.7 ENE 15 22 8 12 1014.9 - 0.0
29/08:00am 24.0 21.5 1.6 23 10.8 E 4 11 2 6 1014.8 - 0.0
29/07:30am 22.3 17.7 1.3 25 9.9 SE 15 19 8 10 1014.3 - 0.0
29/07:00am 20.1 15.0 0.5 27 9.0 SE 17 24 9 13 1013.8 - 0.0
29/06:30am 21.5 15.4 0.7 25 9.7 SSE 22 28 12 15 1013.4 - 0.0
29/06:00am 21.5 15.1 0.7 25 9.7 SSE 24 30 13 16 1013.2 1011.6 0.0
29/05:30am 22.3 16.2 0.2 23 10.2 SSE 22 28 12 15 1012.8 - 0.0
29/05:00am 22.7 16.9 -0.1 22 10.5 SSE 20 26 11 14 1012.5 - 0.0
29/04:30am 22.3 16.7 0.2 23 10.2 S 19 20 10 11 1012.3 - 0.0
29/04:00am 20.8 16.8 0.6 26 9.3 SE 11 15 6 8 1012.4 - 0.0
29/03:30am 19.0 16.0 2.0 32 7.9 ESE 7 11 4 6 1012.7 - 0.0
29/03:00am 19.1 15.7 1.6 31 8.1 ENE 9 13 5 7 1012.9 1011.3 0.0
29/02:30am 21.2 17.4 2.0 28 9.1 WNW 11 15 6 8 1012.9 - 0.0
29/02:00am 20.7 16.4 1.1 27 9.1 WSW 13 15 7 8 1012.8 - 0.0
29/01:30am 21.7 17.8 1.4 26 9.6 WNW 11 13 6 7 1013.0 - 0.0
29/01:00am 22.3 18.5 -0.4 22 10.4 SSW 9 13 5 7 1013.1 - 0.0
29/12:30am 24.9 19.3 1.1 21 11.4 WSW 20 28 11 15 1013.5 - 0.0
29/12:00am 22.5 18.9 0.4 23 10.3 E 9 9 5 5 1013.5 1011.9 0.0
 
Date/Time
CST
Temp
°C
App
Temp
°C
Dew
Point
Rel
Hum
%
Delta-T
°C
Wind Press
QNH
hPa
Press
MSL
hPa
Rain
since 9 am
mm
Dir
 
Spd
km/h
Gust
km/h
Spd
kts
Gust
kts
28/11:30pm 22.8 18.8 0.6 23 10.4 NE 11 13 6 7 1013.9 - 0.0
28/11:00pm 23.2 19.6 0.3 22 10.7 ESE 9 9 5 5 1014.2 - 0.0
28/10:30pm 23.0 19.9 0.2 22 10.6 ESE 6 7 3 4 1014.4 - 0.0
28/10:00pm 24.4 21.3 0.0 20 11.4 ESE 6 7 3 4 1014.5 - 0.0
28/09:30pm 25.2 21.1 0.0 19 11.9 ENE 11 13 6 7 1014.5 - 0.0
28/09:00pm 26.3 22.2 0.1 18 12.5 ENE 11 13 6 7 1014.4 1012.8 0.0
28/08:30pm 27.0 22.5 -0.1 17 12.9 ENE 13 13 7 7 1014.0 - 0.0
28/08:00pm 27.3 22.9 0.1 17 13.0 NE 13 13 7 7 1013.7 - 0.0
28/07:30pm 28.2 24.1 0.0 16 13.6 NNE 11 13 6 7 1013.4 - 0.0
28/07:00pm 30.6 26.3 -2.0 12 15.4 N 11 13 6 7 1013.2 - 0.0
28/06:30pm 33.0 28.2 -2.6 10 17.0 N 13 17 7 9 1012.8 - 0.0
28/06:00pm 34.3 29.1 -3.1 9 17.9 NNW 15 22 8 12 1012.8 1011.2 0.0
28/05:30pm 35.0 29.1 -2.6 9 18.2 NNW 19 26 10 14 1012.7 - 0.0
28/05:00pm 35.2 29.1 -2.4 9 18.3 NNW 20 26 11 14 1012.7 - 0.0
28/04:30pm 35.6 29.0 -3.7 8 18.7 NW 22 30 12 16 1012.7 - 0.0
28/04:00pm 35.6 29.3 -3.7 8 18.7 NW 20 28 11 15 1012.8 - 0.0
28/03:30pm 35.7 29.6 -3.6 8 18.8 NW 19 33 10 18 1013.1 - 0.0
28/03:00pm 35.9 28.9 -3.5 8 18.9 WNW 24 37 13 20 1013.3 1011.7 0.0
28/02:30pm 36.4 29.8 -3.1 8 19.1 NW 22 30 12 16 1013.7 - 0.0
28/02:00pm 35.5 28.8 -3.8 8 18.7 NW 22 33 12 18 1014.2 - 0.0
28/01:30pm 35.4 28.7 -3.8 8 18.6 NNW 22 37 12 20 1014.7 - 0.0
28/01:00pm 35.0 28.3 -4.1 8 18.4 NW 22 30 12 16 1015.2 - 0.0
28/12:30pm 34.1 27.7 -4.8 8 18.0 N 20 26 11 14 1015.5 - 0.0
28/12:00pm 33.5 27.3 -5.2 8 17.7 NNW 19 32 10 17 1015.8 1014.3 0.0
28/11:30am 32.6 26.3 -4.3 9 17.1 N 20 30 11 16 1016.2 - 0.0
28/11:00am 31.5 24.7 -5.2 9 16.6 NNW 22 33 12 18 1016.3 - 0.0
28/10:30am 30.5 23.6 -5.9 9 16.1 N 22 33 12 18 1016.8 - 0.0
28/10:00am 30.0 22.8 -4.9 10 15.6 N 24 35 13 19 1016.8 - 0.0
28/09:30am 28.6 21.5 -4.7 11 14.8 N 24 30 13 16 1016.5 - 0.0
28/09:00am 26.8 20.1 -3.9 13 13.6 NNE 22 33 12 18 1016.6 1015.0 0.0
28/08:30am 24.8 18.7 -2.7 16 12.3 NE 20 26 11 14 1016.7 - 0.0
28/08:00am 23.1 16.6 -2.5 18 11.3 NE 22 30 12 16 1016.5 - 0.0
28/07:30am 22.4 16.8 -3.1 18 11.1 NE 17 22 9 12 1016.3 - 0.0
28/07:00am 21.0 15.9 -2.1 21 10.1 ENE 15 19 8 10 1016.0 - 0.0
28/06:30am 19.2 14.5 -1.8 24 9.1 ENE 13 15 7 8 1015.9 - 0.0
28/06:00am 18.8 14.0 -2.2 24 9.0 ENE 13 15 7 8 1015.7 1014.1 0.0
28/05:30am 19.6 15.2 -2.7 22 9.5 NE 11 13 6 7 1015.6 - 0.0
28/05:00am 20.0 15.2 -2.3 22 9.6 ENE 13 17 7 9 1015.4 - 0.0
28/04:30am 20.7 15.8 -3.0 20 10.2 ENE 13 17 7 9 1015.3 - 0.0
28/04:00am 21.8 17.0 -2.8 19 10.7 ENE 13 19 7 10 1015.1 - 0.0
28/03:30am 22.6 17.4 -2.9 18 11.1 ENE 15 20 8 11 1015.0 - 0.0
28/03:00am 21.3 16.5 -2.5 20 10.4 ENE 13 15 7 8 1015.3 1013.7 0.0
28/02:30am 21.6 16.5 -2.3 20 10.5 ENE 15 17 8 9 1015.5 - 0.0
28/02:00am 21.7 16.9 -2.2 20 10.5 NE 13 17 7 9 1015.8 - 0.0
28/01:30am 22.2 17.1 -1.8 20 10.7 ENE 15 19 8 10 1015.9 - 0.0
28/01:00am 22.6 17.2 -1.5 20 10.8 ENE 17 20 9 11 1016.0 - 0.0
28/12:30am 22.9 17.9 -1.2 20 10.9 NE 15 20 8 11 1016.3 - 0.0
28/12:00am 22.1 17.1 -1.2 21 10.5 NE 15 19 8 10 1016.5 1014.9 0.0

Other Formats:

Comma delimited format used in spreadsheet applications
http://www.bom.gov.au/fwo/IDD60801/IDD60801.94321.axf

JavaScript Object Notation format (JSON) in row-major order
http://www.bom.gov.au/fwo/IDD60801/IDD60801.94321.json